createdAt,value
2018-10-21T00:01:25.790Z,9.10
2018-10-21T00:03:54.043Z,9.00
2018-10-21T00:06:22.211Z,8.90
2018-10-21T00:08:50.406Z,8.80
2018-10-21T00:11:18.670Z,8.80
2018-10-21T00:13:46.852Z,8.70
2018-10-21T00:16:15.078Z,8.80
2018-10-21T00:18:43.277Z,8.80
2018-10-21T00:21:11.551Z,8.90
2018-10-21T00:23:39.745Z,8.90
2018-10-21T00:26:07.936Z,8.90
2018-10-21T00:28:36.161Z,8.80
2018-10-21T00:31:04.419Z,8.80
2018-10-21T00:33:32.628Z,8.80
2018-10-21T00:36:00.828Z,8.70
2018-10-21T00:38:29.036Z,8.70
2018-10-21T00:40:57.268Z,8.70
2018-10-21T00:43:25.518Z,8.60
2018-10-21T00:45:53.723Z,8.40
2018-10-21T00:48:22.416Z,8.40
2018-10-21T00:50:50.639Z,8.30
2018-10-21T00:53:18.858Z,8.20
2018-10-21T00:55:47.089Z,8.10
2018-10-21T00:58:15.371Z,8.10
2018-10-21T01:00:43.644Z,8.20
2018-10-21T01:03:11.873Z,8.20
2018-10-21T01:05:40.094Z,8.10
2018-10-21T01:08:08.278Z,8.00
2018-10-21T01:10:36.494Z,8.00
2018-10-21T01:13:04.775Z,8.00
2018-10-21T01:15:32.969Z,8.00
2018-10-21T01:18:01.192Z,7.90
2018-10-21T01:20:29.370Z,8.00
2018-10-21T01:22:57.597Z,8.20
2018-10-21T01:25:25.825Z,8.20
2018-10-21T01:27:54.077Z,8.30
2018-10-21T01:30:22.272Z,8.40
2018-10-21T01:32:50.495Z,8.10
2018-10-21T01:35:18.699Z,8.10
2018-10-21T01:37:46.979Z,8.20
2018-10-21T01:40:32.098Z,8.20
2018-10-21T01:43:00.639Z,8.10
2018-10-21T01:45:28.874Z,8.00
2018-10-21T01:47:59.245Z,8.00
2018-10-21T01:50:27.480Z,7.90
2018-10-21T01:52:57.057Z,7.90
2018-10-21T01:55:25.661Z,7.90
2018-10-21T01:57:54.391Z,8.00
2018-10-21T02:00:22.980Z,8.00
2018-10-21T02:02:51.164Z,8.00
2018-10-21T02:05:19.413Z,8.00
2018-10-21T02:07:47.667Z,8.00
2018-10-21T02:10:15.879Z,8.00
2018-10-21T02:12:44.171Z,7.90
2018-10-21T02:15:13.134Z,7.90
2018-10-21T02:17:41.465Z,8.00
2018-10-21T02:20:10.811Z,8.00
2018-10-21T02:22:39.531Z,8.00
2018-10-21T02:25:08.094Z,7.80
2018-10-21T02:27:36.880Z,7.70
2018-10-21T02:30:08.026Z,7.60
2018-10-21T02:32:36.352Z,7.70
2018-10-21T02:35:05.577Z,7.80
2018-10-21T02:37:33.779Z,7.60
2018-10-21T02:40:02.046Z,7.50
2018-10-21T02:42:30.304Z,7.60
2018-10-21T02:44:58.578Z,7.60
2018-10-21T02:47:26.753Z,7.40
2018-10-21T02:49:54.960Z,7.40
2018-10-21T02:52:23.208Z,7.50
2018-10-21T02:54:51.396Z,7.60
2018-10-21T02:57:19.630Z,7.70
2018-10-21T02:59:47.852Z,7.70
2018-10-21T03:02:16.057Z,7.70
2018-10-21T03:04:44.267Z,7.70
2018-10-21T03:07:12.459Z,7.80
2018-10-21T03:09:40.630Z,7.80
2018-10-21T03:12:08.818Z,7.70
2018-10-21T03:14:37.052Z,7.60
2018-10-21T03:17:05.255Z,7.70
2018-10-21T03:19:33.455Z,7.70
2018-10-21T03:22:01.681Z,7.60
2018-10-21T03:24:29.870Z,7.60
2018-10-21T03:26:58.124Z,7.60
2018-10-21T03:29:26.275Z,7.60
2018-10-21T03:31:54.484Z,7.40
2018-10-21T03:34:22.714Z,7.40
2018-10-21T03:36:50.959Z,7.30
2018-10-21T03:39:19.212Z,7.30
2018-10-21T03:41:47.421Z,7.40
2018-10-21T03:44:15.671Z,7.40
2018-10-21T03:46:43.891Z,7.40
2018-10-21T03:49:12.078Z,7.30
2018-10-21T03:51:40.308Z,7.20
2018-10-21T03:54:08.530Z,7.20
2018-10-21T03:56:36.810Z,7.10
2018-10-21T03:59:05.217Z,7.10
2018-10-21T04:01:33.423Z,6.90
2018-10-21T04:04:01.665Z,6.90
2018-10-21T04:06:29.881Z,6.90
2018-10-21T04:08:58.102Z,6.80
2018-10-21T04:11:26.354Z,6.80
2018-10-21T04:13:54.592Z,6.70
2018-10-21T04:16:22.794Z,6.70
2018-10-21T04:18:51.132Z,6.70
2018-10-21T04:21:19.314Z,6.60
2018-10-21T04:23:47.492Z,6.70
2018-10-21T04:26:15.766Z,6.60
2018-10-21T04:28:43.991Z,6.70
2018-10-21T04:31:12.226Z,6.60
2018-10-21T04:33:40.535Z,6.60
2018-10-21T04:36:10.284Z,6.60
2018-10-21T04:38:49.797Z,6.60
2018-10-21T04:41:17.977Z,6.70
2018-10-21T04:43:46.215Z,6.70
2018-10-21T04:46:14.439Z,6.60
2018-10-21T04:48:42.601Z,6.70
2018-10-21T04:51:10.828Z,6.60
2018-10-21T04:53:39.103Z,6.40
2018-10-21T04:56:07.402Z,6.40
2018-10-21T04:58:35.644Z,6.40
2018-10-21T05:01:03.835Z,6.40
2018-10-21T05:03:32.072Z,6.40
2018-10-21T05:06:00.308Z,6.20
2018-10-21T05:08:28.529Z,6.20
2018-10-21T05:10:56.748Z,6.10
2018-10-21T05:39:54.731Z,6.30
2018-10-21T05:42:23.783Z,6.30
2018-10-21T05:46:09.010Z,6.30
2018-10-21T05:48:54.256Z,6.30
2018-10-21T05:51:24.477Z,6.40
2018-10-21T06:07:02.461Z,6.50
2018-10-21T06:09:31.628Z,6.50
2018-10-21T06:12:00.586Z,6.30
2018-10-21T06:15:01.433Z,6.30
2018-10-21T06:20:24.603Z,6.30
2018-10-21T06:22:54.244Z,6.30
2018-10-21T06:25:44.214Z,6.30
2018-10-21T06:28:32.576Z,6.30
2018-10-21T06:31:01.336Z,6.30
2018-10-21T06:33:30.146Z,6.30
2018-10-21T06:36:00.782Z,6.30
2018-10-21T06:38:29.718Z,6.50
2018-10-21T06:40:58.671Z,6.60
2018-10-21T06:52:06.892Z,6.90
2018-10-21T06:54:38.056Z,6.90
2018-10-21T06:57:07.712Z,7.20
2018-10-21T06:59:36.267Z,7.20
2018-10-21T07:02:05.481Z,7.40
2018-10-21T07:04:33.996Z,7.60
2018-10-21T07:07:02.930Z,7.90
2018-10-21T07:09:32.133Z,8.00
2018-10-21T07:12:00.818Z,8.30
2018-10-21T07:14:29.860Z,8.20
2018-10-21T07:17:03.844Z,8.40
2018-10-21T07:19:32.790Z,8.50
2018-10-21T07:22:01.850Z,8.80
2018-10-21T07:24:30.519Z,9.00
2018-10-21T07:26:59.741Z,9.30
2018-10-21T07:29:34.343Z,9.40
2018-10-21T07:32:03.014Z,9.60
2018-10-21T07:34:32.131Z,9.70
2018-10-21T07:37:01.362Z,9.90
2018-10-21T07:39:30.120Z,10.10
2018-10-21T07:42:07.165Z,10.50
2018-10-21T07:44:51.526Z,10.80
2018-10-21T07:47:20.430Z,11.10
2018-10-21T07:49:49.954Z,11.30
2018-10-21T07:52:20.237Z,11.60
2018-10-21T07:54:54.780Z,11.70
2018-10-21T07:57:24.066Z,11.20
2018-10-21T08:02:59.133Z,11.40
2018-10-21T08:11:00.357Z,12.00
2018-10-21T08:13:28.846Z,12.30
2018-10-21T08:15:57.488Z,12.90
2018-10-21T08:18:26.236Z,13.20
2018-10-21T08:20:54.780Z,13.30
2018-10-21T08:23:23.439Z,13.60
2018-10-21T08:25:52.164Z,13.90
2018-10-21T08:28:20.685Z,14.30
2018-10-21T08:30:49.291Z,14.60
2018-10-21T08:33:17.837Z,14.40
2018-10-21T08:35:46.514Z,14.00
2018-10-21T08:38:15.005Z,14.60
2018-10-21T08:40:43.626Z,15.20
2018-10-21T08:43:12.313Z,15.00
2018-10-21T08:45:41.912Z,14.90
2018-10-21T08:48:11.362Z,14.80
2018-10-21T08:50:39.945Z,15.00
2018-10-21T08:53:08.486Z,15.10
2018-10-21T08:55:37.380Z,15.40
2018-10-21T08:58:05.967Z,15.60
2018-10-21T09:00:34.547Z,16.00
2018-10-21T09:03:03.133Z,16.40
2018-10-21T09:05:34.260Z,16.90
2018-10-21T09:08:02.623Z,16.70
2018-10-21T09:10:31.292Z,17.10
2018-10-21T09:12:59.958Z,17.20
2018-10-21T09:15:28.839Z,16.90
2018-10-21T09:17:57.237Z,17.40
2018-10-21T09:20:41.221Z,17.00
2018-10-21T09:23:10.092Z,17.20
2018-10-21T09:25:38.708Z,16.70
2018-10-21T09:28:07.489Z,17.10
2018-10-21T09:30:36.396Z,17.50
2018-10-21T09:33:04.899Z,18.50
2018-10-21T09:35:33.641Z,18.60
2018-10-21T09:38:09.845Z,19.40
2018-10-21T09:40:38.409Z,19.20
2018-10-21T09:43:07.406Z,19.50
2018-10-21T09:45:36.038Z,19.70
2018-10-21T09:48:04.921Z,19.60
2018-10-21T09:50:40.925Z,19.60
2018-10-21T09:53:09.406Z,19.60
2018-10-21T09:55:38.094Z,19.80
2018-10-21T09:58:06.747Z,20.10
2018-10-21T10:00:40.399Z,20.10
2018-10-21T10:03:12.361Z,20.20
2018-10-21T10:05:40.965Z,20.40
2018-10-21T10:08:09.441Z,20.50
2018-10-21T10:10:38.032Z,21.30
2018-10-21T10:13:08.518Z,21.30
2018-10-21T10:15:36.998Z,21.40
2018-10-21T10:18:06.905Z,21.20
2018-10-21T10:20:35.503Z,21.70
2018-10-21T10:23:06.189Z,21.80
2018-10-21T10:25:34.677Z,22.00
2018-10-21T10:28:03.315Z,21.80
2018-10-21T10:30:31.975Z,22.30
2018-10-21T10:33:00.702Z,22.20
2018-10-21T10:35:29.204Z,22.80
2018-10-21T10:37:57.690Z,23.50
2018-10-21T10:40:26.244Z,23.40
2018-10-21T10:42:54.720Z,23.40
2018-10-21T10:45:23.137Z,23.50
2018-10-21T10:47:51.541Z,23.70
2018-10-21T10:50:20.144Z,23.70
2018-10-21T10:52:48.651Z,24.00
2018-10-21T10:55:17.743Z,23.20
2018-10-21T10:57:46.154Z,24.10
2018-10-21T11:00:14.695Z,24.90
2018-10-21T11:02:43.023Z,24.60
2018-10-21T11:05:11.585Z,25.10
2018-10-21T11:07:46.608Z,25.60
2018-10-21T11:10:15.003Z,25.10
2018-10-21T11:12:43.395Z,24.90
2018-10-21T11:15:11.778Z,25.60
2018-10-21T11:17:40.063Z,26.10
2018-10-21T11:20:08.328Z,25.70
2018-10-21T11:22:36.686Z,26.40
2018-10-21T11:25:07.018Z,25.80
2018-10-21T11:27:35.319Z,25.80
2018-10-21T11:30:03.536Z,26.00
2018-10-21T11:32:31.846Z,25.20
2018-10-21T11:35:00.160Z,25.80
2018-10-21T11:37:28.545Z,26.00
2018-10-21T11:39:56.674Z,26.80
2018-10-21T11:42:24.880Z,27.30
2018-10-21T11:44:53.094Z,26.80
2018-10-21T11:47:21.255Z,27.20
2018-10-21T11:49:49.500Z,27.20
2018-10-21T11:52:17.821Z,27.20
2018-10-21T11:54:45.925Z,26.90
2018-10-21T11:57:14.099Z,26.50
2018-10-21T11:59:42.317Z,26.50
2018-10-21T12:02:10.528Z,26.50
2018-10-21T12:04:38.719Z,26.90
2018-10-21T12:07:06.957Z,26.60
2018-10-21T12:09:35.163Z,26.80
2018-10-21T12:12:03.353Z,26.50
2018-10-21T12:14:31.565Z,26.90
2018-10-21T12:16:59.782Z,27.20
2018-10-21T12:19:27.967Z,27.20
2018-10-21T12:21:56.217Z,27.40
2018-10-21T12:24:24.442Z,27.40
2018-10-21T12:26:52.698Z,27.00
2018-10-21T12:29:21.111Z,27.10
2018-10-21T12:31:49.187Z,27.40
2018-10-21T12:34:17.403Z,26.30
2018-10-21T12:36:45.619Z,26.60
2018-10-21T12:39:13.836Z,27.20
2018-10-21T12:41:42.708Z,26.60
2018-10-21T12:44:10.931Z,26.80
2018-10-21T12:46:39.580Z,27.10
2018-10-21T12:49:08.063Z,26.70
2018-10-21T12:51:36.221Z,25.60
2018-10-21T12:54:04.756Z,25.60
2018-10-21T12:56:32.931Z,25.70
2018-10-21T12:59:01.165Z,26.50
2018-10-21T13:01:29.395Z,26.60
2018-10-21T13:03:57.627Z,26.50
2018-10-21T13:06:25.856Z,26.70
2018-10-21T13:08:54.141Z,27.20
2018-10-21T13:11:22.543Z,27.10
2018-10-21T13:13:50.746Z,27.40
2018-10-21T13:16:18.930Z,27.60
2018-10-21T13:18:47.129Z,28.20
2018-10-21T13:21:15.323Z,27.60
2018-10-21T13:23:43.554Z,27.50
2018-10-21T13:26:11.777Z,27.10
2018-10-21T13:28:40.001Z,27.50
2018-10-21T13:31:08.193Z,27.40
2018-10-21T13:33:36.397Z,26.80
2018-10-21T13:36:05.059Z,27.20
2018-10-21T13:38:33.385Z,27.00
2018-10-21T13:41:01.746Z,26.80
2018-10-21T13:43:29.930Z,26.30
2018-10-21T13:45:58.293Z,26.70
2018-10-21T13:48:26.519Z,26.70
2018-10-21T13:50:54.700Z,27.60
2018-10-21T13:53:22.950Z,28.00
2018-10-21T13:55:51.122Z,28.50
2018-10-21T13:58:19.344Z,28.90
2018-10-21T14:00:47.667Z,29.50
2018-10-21T14:03:15.833Z,29.80
2018-10-21T14:05:44.027Z,30.40
2018-10-21T14:08:12.225Z,30.00
2018-10-21T14:10:40.454Z,28.70
2018-10-21T14:13:08.721Z,26.80
2018-10-21T14:15:36.895Z,25.10
2018-10-21T14:18:05.165Z,24.70
2018-10-21T14:20:33.372Z,24.20
2018-10-21T14:23:01.572Z,23.80
2018-10-21T14:25:29.784Z,23.40
2018-10-21T14:27:58.003Z,22.80
2018-10-21T14:30:26.240Z,22.80
2018-10-21T14:32:54.477Z,22.60
2018-10-21T14:35:22.678Z,22.60
2018-10-21T14:37:50.955Z,22.60
2018-10-21T14:40:19.183Z,22.30
2018-10-21T14:42:47.358Z,22.10
2018-10-21T14:45:15.679Z,21.90
2018-10-21T14:47:43.840Z,21.50
2018-10-21T14:50:12.650Z,20.90
2018-10-21T14:52:40.847Z,20.70
2018-10-21T14:55:10.033Z,20.80
2018-10-21T14:57:38.597Z,20.60
2018-10-21T15:00:08.569Z,20.60
2018-10-21T15:02:36.694Z,20.40
2018-10-21T15:05:07.187Z,20.60
2018-10-21T15:07:35.361Z,20.40
2018-10-21T15:10:03.929Z,20.50
2018-10-21T15:12:32.087Z,20.20
2018-10-21T15:15:00.258Z,20.10
2018-10-21T15:17:28.488Z,20.20
2018-10-21T15:19:56.690Z,20.10
2018-10-21T15:22:24.901Z,20.10
2018-10-21T15:24:53.094Z,19.80
2018-10-21T15:27:21.310Z,19.60
2018-10-21T15:29:49.667Z,19.60
2018-10-21T15:32:17.953Z,19.60
2018-10-21T15:34:46.226Z,19.60
2018-10-21T15:37:14.412Z,19.60
2018-10-21T15:39:42.702Z,19.60
2018-10-21T15:42:10.819Z,19.50
2018-10-21T15:44:39.029Z,19.30
2018-10-21T15:47:07.261Z,19.00
2018-10-21T15:49:35.445Z,19.10
2018-10-21T15:52:03.643Z,19.30
2018-10-21T15:54:32.559Z,19.20
2018-10-21T15:57:00.759Z,19.20
2018-10-21T15:59:29.181Z,19.10
2018-10-21T16:01:57.417Z,19.10
2018-10-21T16:04:25.585Z,19.10
2018-10-21T16:06:53.819Z,19.10
2018-10-21T16:09:22.019Z,19.10
2018-10-21T16:11:50.264Z,19.00
2018-10-21T16:14:18.537Z,18.90
2018-10-21T16:16:46.717Z,18.90
2018-10-21T16:19:14.980Z,18.80
2018-10-21T16:21:43.254Z,18.60
2018-10-21T16:24:11.519Z,18.60
2018-10-21T16:26:39.787Z,18.50
2018-10-21T16:29:08.142Z,18.30
2018-10-21T16:31:36.374Z,18.20
2018-10-21T16:34:04.909Z,18.20
2018-10-21T16:36:33.121Z,18.10
2018-10-21T16:39:01.327Z,18.00
2018-10-21T16:41:32.645Z,17.90
2018-10-21T16:44:00.827Z,17.90
2018-10-21T16:46:29.088Z,17.70
2018-10-21T16:48:57.384Z,17.60
2018-10-21T16:51:25.748Z,17.60
2018-10-21T16:53:53.989Z,17.50
2018-10-21T16:56:22.148Z,17.20
2018-10-21T16:58:50.359Z,17.10
2018-10-21T17:01:18.575Z,17.00
2018-10-21T17:03:46.817Z,16.90
2018-10-21T17:06:15.128Z,16.80
2018-10-21T17:08:43.309Z,16.70
2018-10-21T17:11:11.627Z,16.60
2018-10-21T17:13:39.675Z,16.50
2018-10-21T17:16:08.149Z,16.30
2018-10-21T17:18:36.512Z,16.20
2018-10-21T17:21:05.045Z,16.10
2018-10-21T17:23:33.349Z,16.00
2018-10-21T17:26:01.590Z,15.90
2018-10-21T17:28:29.807Z,15.90
2018-10-21T17:30:58.116Z,15.80
2018-10-21T17:33:26.391Z,15.80
2018-10-21T17:35:56.745Z,15.70
2018-10-21T17:38:24.943Z,15.60
2018-10-21T17:40:53.137Z,15.60
2018-10-21T17:43:21.395Z,15.50
2018-10-21T17:45:49.602Z,15.50
2018-10-21T17:48:17.837Z,15.40
2018-10-21T17:50:46.109Z,15.30
2018-10-21T17:53:14.556Z,15.30
2018-10-21T17:55:42.827Z,15.30
2018-10-21T17:58:11.293Z,15.30
2018-10-21T18:00:39.611Z,15.20
2018-10-21T18:03:07.796Z,15.20
2018-10-21T18:05:36.045Z,15.20
2018-10-21T18:08:04.295Z,15.20
2018-10-21T18:10:32.577Z,15.10
2018-10-21T18:13:00.845Z,15.00
2018-10-21T18:15:29.092Z,15.10
2018-10-21T18:17:57.457Z,14.80
2018-10-21T18:20:25.861Z,14.80
2018-10-21T18:22:54.125Z,14.80
2018-10-21T18:25:22.344Z,14.80
2018-10-21T18:27:50.647Z,14.80
2018-10-21T18:30:18.841Z,14.80
2018-10-21T18:32:47.133Z,14.80
2018-10-21T18:35:16.117Z,14.80
2018-10-21T18:37:44.361Z,14.80
2018-10-21T18:40:12.984Z,14.70
2018-10-21T18:42:41.608Z,14.80
2018-10-21T18:45:11.641Z,14.70
2018-10-21T18:47:39.909Z,14.70
2018-10-21T18:50:10.108Z,14.60
2018-10-21T18:52:38.376Z,14.50
2018-10-21T18:55:07.236Z,14.40
2018-10-21T18:57:35.467Z,14.30
2018-10-21T19:00:03.797Z,14.30
2018-10-21T19:02:32.071Z,14.20
2018-10-21T19:05:00.423Z,14.20
2018-10-21T19:07:28.788Z,14.10
2018-10-21T19:09:57.091Z,14.00
2018-10-21T19:12:25.463Z,14.00
2018-10-21T19:14:54.762Z,14.10
2018-10-21T19:17:23.079Z,14.00
2018-10-21T19:19:51.473Z,13.90
2018-10-21T19:22:19.708Z,13.80
2018-10-21T19:24:47.961Z,13.90
2018-10-21T19:27:16.178Z,13.90
2018-10-21T19:29:44.436Z,13.90
2018-10-21T19:32:12.717Z,13.80
2018-10-21T19:34:41.060Z,13.80
2018-10-21T19:37:09.263Z,13.80
2018-10-21T19:39:37.580Z,13.60
2018-10-21T19:42:05.814Z,13.50
2018-10-21T19:44:34.205Z,13.50
2018-10-21T19:47:02.553Z,13.40
2018-10-21T19:49:30.747Z,13.30
2018-10-21T19:51:59.119Z,13.30
2018-10-21T19:54:27.373Z,13.30
2018-10-21T19:56:55.702Z,13.20
2018-10-21T19:59:23.919Z,13.20
2018-10-21T20:01:52.248Z,13.00
2018-10-21T20:36:37.810Z,12.60
2018-10-21T20:39:39.208Z,12.60
2018-10-21T21:23:42.981Z,11.60
2018-10-21T21:32:34.876Z,11.80
2018-10-21T21:40:57.465Z,11.70
2018-10-21T21:55:02.888Z,11.60
